sensor_id;sensor_type;location;lat;lon;timestamp;pressure;altitude;pressure_sealevel;temperature;humidity
60583;BME280;46415;47.536;19.066;2022-09-01T00:00:11;100461.94;;;16.00;100.00
60583;BME280;46415;47.536;19.066;2022-09-01T00:03:17;100467.34;;;15.84;100.00
60583;BME280;46415;47.536;19.066;2022-09-01T00:06:22;100462.12;;;15.70;100.00
60583;BME280;46415;47.536;19.066;2022-09-01T00:09:25;100463.28;;;15.66;100.00
60583;BME280;46415;47.536;19.066;2022-09-01T00:12:28;100466.59;;;15.68;100.00
60583;BME280;46415;47.536;19.066;2022-09-01T00:15:34;100462.59;;;15.63;100.00
60583;BME280;46415;47.536;19.066;2022-09-01T00:18:36;100471.37;;;15.76;100.00
60583;BME280;46415;47.536;19.066;2022-09-01T00:21:42;100465.81;;;15.80;100.00
60583;BME280;46415;47.536;19.066;2022-09-01T00:24:45;100471.22;;;15.91;100.00
60583;BME280;46415;47.536;19.066;2022-09-01T00:27:49;100467.03;;;15.89;100.00
60583;BME280;46415;47.536;19.066;2022-09-01T00:30:52;100472.56;;;15.84;100.00
60583;BME280;46415;47.536;19.066;2022-09-01T00:33:56;100475.28;;;15.83;100.00
60583;BME280;46415;47.536;19.066;2022-09-01T00:36:59;100477.19;;;15.67;100.00
60583;BME280;46415;47.536;19.066;2022-09-01T00:40:03;100487.00;;;15.63;100.00
60583;BME280;46415;47.536;19.066;2022-09-01T00:43:37;100489.62;;;15.49;100.00
60583;BME280;46415;47.536;19.066;2022-09-01T00:46:44;100490.34;;;15.51;100.00
60583;BME280;46415;47.536;19.066;2022-09-01T00:49:56;100492.13;;;15.50;100.00
60583;BME280;46415;47.536;19.066;2022-09-01T00:52:59;100491.56;;;15.45;100.00
60583;BME280;46415;47.536;19.066;2022-09-01T00:56:03;100493.91;;;15.36;100.00
60583;BME280;46415;47.536;19.066;2022-09-01T00:59:07;100494.09;;;15.33;100.00
60583;BME280;46415;47.536;19.066;2022-09-01T01:02:11;100499.50;;;15.16;100.00
60583;BME280;46415;47.536;19.066;2022-09-01T01:05:14;100500.34;;;15.16;100.00
60583;BME280;46415;47.536;19.066;2022-09-01T01:08:17;100502.69;;;15.06;100.00
60583;BME280;46415;47.536;19.066;2022-09-01T01:11:22;100503.59;;;15.20;100.00
60583;BME280;46415;47.536;19.066;2022-09-01T01:14:26;100506.50;;;15.15;100.00
60583;BME280;46415;47.536;19.066;2022-09-01T01:17:30;100497.09;;;15.13;100.00
60583;BME280;46415;47.536;19.066;2022-09-01T01:20:33;100502.13;;;15.16;100.00
60583;BME280;46415;47.536;19.066;2022-09-01T01:27:19;100516.22;;;14.99;100.00
60583;BME280;46415;47.536;19.066;2022-09-01T01:30:23;100514.72;;;14.95;100.00
60583;BME280;46415;47.536;19.066;2022-09-01T01:33:32;100509.97;;;15.01;100.00
60583;BME280;46415;47.536;19.066;2022-09-01T01:36:37;100505.75;;;14.99;100.00
60583;BME280;46415;47.536;19.066;2022-09-01T01:39:41;100506.88;;;15.09;100.00
60583;BME280;46415;47.536;19.066;2022-09-01T01:42:49;100507.44;;;15.14;100.00
60583;BME280;46415;47.536;19.066;2022-09-01T01:45:54;100511.66;;;15.17;100.00
60583;BME280;46415;47.536;19.066;2022-09-01T01:49:01;100513.72;;;15.11;100.00
60583;BME280;46415;47.536;19.066;2022-09-01T01:52:04;100518.19;;;15.09;100.00
60583;BME280;46415;47.536;19.066;2022-09-01T01:55:10;100513.16;;;15.06;100.00
60583;BME280;46415;47.536;19.066;2022-09-01T01:58:16;100509.31;;;15.12;100.00
60583;BME280;46415;47.536;19.066;2022-09-01T02:01:23;100507.34;;;15.16;100.00
60583;BME280;46415;47.536;19.066;2022-09-01T02:04:26;100503.88;;;15.15;100.00
60583;BME280;46415;47.536;19.066;2022-09-01T02:07:39;100497.81;;;15.15;100.00
60583;BME280;46415;47.536;19.066;2022-09-01T02:10:46;100491.03;;;15.12;100.00
60583;BME280;46415;47.536;19.066;2022-09-01T02:13:49;100491.88;;;15.13;100.00
60583;BME280;46415;47.536;19.066;2022-09-01T02:16:57;100482.78;;;15.04;100.00
60583;BME280;46415;47.536;19.066;2022-09-01T02:20:00;100484.41;;;15.06;100.00
60583;BME280;46415;47.536;19.066;2022-09-01T02:23:03;100478.69;;;15.00;100.00
60583;BME280;46415;47.536;19.066;2022-09-01T02:26:12;100477.28;;;14.94;100.00
60583;BME280;46415;47.536;19.066;2022-09-01T02:29:21;100483.59;;;14.90;100.00
60583;BME280;46415;47.536;19.066;2022-09-01T02:32:24;100482.41;;;14.82;100.00
60583;BME280;46415;47.536;19.066;2022-09-01T02:35:26;100486.09;;;14.78;100.00
60583;BME280;46415;47.536;19.066;2022-09-01T02:38:40;100492.19;;;14.78;100.00
60583;BME280;46415;47.536;19.066;2022-09-01T02:41:49;100497.75;;;14.72;100.00
60583;BME280;46415;47.536;19.066;2022-09-01T02:44:54;100478.53;;;14.73;100.00
60583;BME280;46415;47.536;19.066;2022-09-01T02:47:58;100478.38;;;14.76;100.00
60583;BME280;46415;47.536;19.066;2022-09-01T02:51:07;100473.88;;;14.78;100.00
60583;BME280;46415;47.536;19.066;2022-09-01T02:54:12;100454.37;;;14.84;100.00
60583;BME280;46415;47.536;19.066;2022-09-01T02:57:20;100450.37;;;14.78;100.00
60583;BME280;46415;47.536;19.066;2022-09-01T03:00:24;100459.03;;;14.64;100.00
60583;BME280;46415;47.536;19.066;2022-09-01T03:03:33;100456.31;;;14.66;100.00
60583;BME280;46415;47.536;19.066;2022-09-01T03:06:38;100452.31;;;14.60;100.00
60583;BME280;46415;47.536;19.066;2022-09-01T03:09:41;100454.37;;;14.69;100.00
60583;BME280;46415;47.536;19.066;2022-09-01T03:12:44;100452.22;;;14.62;100.00
60583;BME280;46415;47.536;19.066;2022-09-01T03:15:50;100438.31;;;14.61;100.00
60583;BME280;46415;47.536;19.066;2022-09-01T03:18:53;100437.22;;;14.80;100.00
60583;BME280;46415;47.536;19.066;2022-09-01T03:21:55;100444.50;;;14.75;100.00
60583;BME280;46415;47.536;19.066;2022-09-01T03:25:02;100449.63;;;14.76;100.00
60583;BME280;46415;47.536;19.066;2022-09-01T03:28:06;100448.06;;;14.88;100.00
60583;BME280;46415;47.536;19.066;2022-09-01T03:31:08;100435.84;;;14.88;100.00
60583;BME280;46415;47.536;19.066;2022-09-01T03:34:11;100440.03;;;14.91;100.00
60583;BME280;46415;47.536;19.066;2022-09-01T03:37:15;100446.41;;;15.01;100.00
60583;BME280;46415;47.536;19.066;2022-09-01T03:40:20;100458.88;;;14.96;100.00
60583;BME280;46415;47.536;19.066;2022-09-01T03:43:23;100464.50;;;15.04;100.00
60583;BME280;46415;47.536;19.066;2022-09-01T03:46:35;100469.25;;;14.97;100.00
60583;BME280;46415;47.536;19.066;2022-09-01T03:49:39;100478.78;;;14.98;100.00
60583;BME280;46415;47.536;19.066;2022-09-01T03:52:53;100486.69;;;14.97;100.00
60583;BME280;46415;47.536;19.066;2022-09-01T03:55:57;100489.78;;;14.89;100.00
60583;BME280;46415;47.536;19.066;2022-09-01T03:59:01;100479.31;;;14.75;100.00
60583;BME280;46415;47.536;19.066;2022-09-01T04:02:05;100471.28;;;14.78;100.00
60583;BME280;46415;47.536;19.066;2022-09-01T04:05:09;100460.44;;;14.84;100.00
60583;BME280;46415;47.536;19.066;2022-09-01T04:08:12;100454.31;;;14.85;100.00
60583;BME280;46415;47.536;19.066;2022-09-01T04:11:18;100450.19;;;14.81;100.00
60583;BME280;46415;47.536;19.066;2022-09-01T04:14:25;100458.78;;;14.69;100.00
60583;BME280;46415;47.536;19.066;2022-09-01T04:17:32;100459.97;;;14.63;100.00
60583;BME280;46415;47.536;19.066;2022-09-01T04:20:56;100456.97;;;14.55;100.00
60583;BME280;46415;47.536;19.066;2022-09-01T04:23:59;100463.87;;;14.56;100.00
60583;BME280;46415;47.536;19.066;2022-09-01T04:27:07;100458.91;;;14.52;100.00
60583;BME280;46415;47.536;19.066;2022-09-01T04:30:11;100460.41;;;14.42;100.00
60583;BME280;46415;47.536;19.066;2022-09-01T04:33:16;100463.34;;;14.36;100.00
60583;BME280;46415;47.536;19.066;2022-09-01T04:36:24;100455.44;;;14.21;100.00
60583;BME280;46415;47.536;19.066;2022-09-01T04:39:29;100452.06;;;14.19;100.00
60583;BME280;46415;47.536;19.066;2022-09-01T04:42:33;100449.47;;;14.19;100.00
60583;BME280;46415;47.536;19.066;2022-09-01T04:45:36;100454.50;;;14.22;100.00
60583;BME280;46415;47.536;19.066;2022-09-01T04:48:40;100458.31;;;14.17;100.00
60583;BME280;46415;47.536;19.066;2022-09-01T04:51:50;100453.94;;;14.17;100.00
60583;BME280;46415;47.536;19.066;2022-09-01T04:54:56;100454.78;;;14.18;100.00
60583;BME280;46415;47.536;19.066;2022-09-01T04:57:59;100458.91;;;14.22;100.00
60583;BME280;46415;47.536;19.066;2022-09-01T05:01:14;100455.03;;;14.13;100.00
60583;BME280;46415;47.536;19.066;2022-09-01T05:04:21;100444.34;;;14.18;100.00
60583;BME280;46415;47.536;19.066;2022-09-01T05:07:24;100449.22;;;14.08;100.00
60583;BME280;46415;47.536;19.066;2022-09-01T05:10:28;100448.81;;;14.16;100.00
60583;BME280;46415;47.536;19.066;2022-09-01T05:13:32;100453.44;;;14.11;100.00
60583;BME280;46415;47.536;19.066;2022-09-01T05:16:36;100455.78;;;14.15;100.00
60583;BME280;46415;47.536;19.066;2022-09-01T05:19:45;100452.03;;;14.05;100.00
60583;BME280;46415;47.536;19.066;2022-09-01T05:22:49;100445.34;;;14.15;100.00
60583;BME280;46415;47.536;19.066;2022-09-01T05:25:52;100455.78;;;14.15;100.00
60583;BME280;46415;47.536;19.066;2022-09-01T05:29:00;100463.78;;;14.12;100.00
60583;BME280;46415;47.536;19.066;2022-09-01T05:32:04;100465.31;;;14.16;100.00
60583;BME280;46415;47.536;19.066;2022-09-01T05:35:11;100463.03;;;14.10;100.00
60583;BME280;46415;47.536;19.066;2022-09-01T05:38:14;100467.34;;;14.11;100.00
60583;BME280;46415;47.536;19.066;2022-09-01T05:41:19;100467.56;;;14.07;100.00
60583;BME280;46415;47.536;19.066;2022-09-01T05:44:23;100468.25;;;14.10;100.00
60583;BME280;46415;47.536;19.066;2022-09-01T05:47:25;100454.09;;;14.14;100.00
60583;BME280;46415;47.536;19.066;2022-09-01T05:50:28;100463.38;;;14.04;100.00
60583;BME280;46415;47.536;19.066;2022-09-01T05:53:32;100465.81;;;14.07;100.00
60583;BME280;46415;47.536;19.066;2022-09-01T05:56:36;100471.44;;;14.15;100.00
60583;BME280;46415;47.536;19.066;2022-09-01T05:59:45;100476.59;;;14.17;100.00
60583;BME280;46415;47.536;19.066;2022-09-01T06:02:55;100465.69;;;14.24;100.00
60583;BME280;46415;47.536;19.066;2022-09-01T06:06:04;100468.41;;;14.23;100.00
60583;BME280;46415;47.536;19.066;2022-09-01T06:09:13;100464.03;;;14.23;100.00
60583;BME280;46415;47.536;19.066;2022-09-01T06:12:19;100476.97;;;14.25;100.00
60583;BME280;46415;47.536;19.066;2022-09-01T06:15:25;100478.34;;;14.16;100.00
60583;BME280;46415;47.536;19.066;2022-09-01T06:18:32;100480.44;;;14.25;100.00
60583;BME280;46415;47.536;19.066;2022-09-01T06:21:38;100485.66;;;14.25;100.00
60583;BME280;46415;47.536;19.066;2022-09-01T06:24:41;100478.75;;;14.40;100.00
60583;BME280;46415;47.536;19.066;2022-09-01T06:27:46;100466.53;;;14.41;100.00
60583;BME280;46415;47.536;19.066;2022-09-01T06:30:49;100479.91;;;14.35;100.00
60583;BME280;46415;47.536;19.066;2022-09-01T06:33:54;100480.66;;;14.37;100.00
60583;BME280;46415;47.536;19.066;2022-09-01T06:36:57;100483.22;;;14.38;100.00
60583;BME280;46415;47.536;19.066;2022-09-01T06:40:01;100488.56;;;14.51;100.00
60583;BME280;46415;47.536;19.066;2022-09-01T06:43:06;100487.09;;;14.61;100.00
60583;BME280;46415;47.536;19.066;2022-09-01T06:46:15;100491.25;;;14.65;100.00
60583;BME280;46415;47.536;19.066;2022-09-01T06:49:20;100492.16;;;14.64;100.00
60583;BME280;46415;47.536;19.066;2022-09-01T06:52:25;100491.41;;;14.62;100.00
60583;BME280;46415;47.536;19.066;2022-09-01T06:55:29;100493.56;;;14.69;100.00
60583;BME280;46415;47.536;19.066;2022-09-01T06:58:36;100500.59;;;14.97;100.00
60583;BME280;46415;47.536;19.066;2022-09-01T07:01:40;100486.06;;;15.22;100.00
60583;BME280;46415;47.536;19.066;2022-09-01T07:04:43;100490.38;;;15.37;100.00
60583;BME280;46415;47.536;19.066;2022-09-01T07:07:53;100493.91;;;15.64;100.00
60583;BME280;46415;47.536;19.066;2022-09-01T07:11:16;100496.97;;;15.71;100.00
60583;BME280;46415;47.536;19.066;2022-09-01T07:14:39;100508.22;;;15.73;100.00
60583;BME280;46415;47.536;19.066;2022-09-01T07:18:01;100509.84;;;15.74;100.00
60583;BME280;46415;47.536;19.066;2022-09-01T07:21:05;100501.09;;;15.75;100.00
60583;BME280;46415;47.536;19.066;2022-09-01T07:24:28;100511.06;;;15.82;100.00
60583;BME280;46415;47.536;19.066;2022-09-01T07:27:41;100511.78;;;15.99;100.00
60583;BME280;46415;47.536;19.066;2022-09-01T07:30:52;100518.69;;;16.00;100.00
60583;BME280;46415;47.536;19.066;2022-09-01T07:33:59;100506.06;;;16.06;100.00
60583;BME280;46415;47.536;19.066;2022-09-01T07:37:22;100511.00;;;16.11;100.00
60583;BME280;46415;47.536;19.066;2022-09-01T07:40:46;100509.66;;;16.18;100.00
60583;BME280;46415;47.536;19.066;2022-09-01T07:44:11;100514.50;;;16.24;100.00
60583;BME280;46415;47.536;19.066;2022-09-01T07:47:17;100513.34;;;16.28;100.00
60583;BME280;46415;47.536;19.066;2022-09-01T07:50:22;100513.09;;;16.32;100.00
60583;BME280;46415;47.536;19.066;2022-09-01T07:53:47;100511.28;;;16.33;100.00
60583;BME280;46415;47.536;19.066;2022-09-01T07:56:51;100512.38;;;16.16;100.00
60583;BME280;46415;47.536;19.066;2022-09-01T07:59:56;100515.94;;;16.15;100.00
60583;BME280;46415;47.536;19.066;2022-09-01T08:02:59;100519.34;;;16.30;100.00
60583;BME280;46415;47.536;19.066;2022-09-01T08:06:11;100517.97;;;16.24;97.86
60583;BME280;46415;47.536;19.066;2022-09-01T08:09:14;100517.25;;;16.35;100.00
60583;BME280;46415;47.536;19.066;2022-09-01T08:12:55;100509.09;;;16.40;100.00
60583;BME280;46415;47.536;19.066;2022-09-01T08:16:02;100509.78;;;16.56;100.00
60583;BME280;46415;47.536;19.066;2022-09-01T08:19:10;100514.87;;;16.71;100.00
60583;BME280;46415;47.536;19.066;2022-09-01T08:22:22;100517.22;;;17.01;100.00
60583;BME280;46415;47.536;19.066;2022-09-01T08:25:28;100515.31;;;17.16;97.93
60583;BME280;46415;47.536;19.066;2022-09-01T08:28:31;100517.84;;;17.30;96.81
60583;BME280;46415;47.536;19.066;2022-09-01T08:31:35;100509.97;;;17.30;94.00
60583;BME280;46415;47.536;19.066;2022-09-01T08:34:38;100509.13;;;17.30;91.28
60583;BME280;46415;47.536;19.066;2022-09-01T08:37:42;100519.59;;;17.42;96.80
60583;BME280;46415;47.536;19.066;2022-09-01T08:40:51;100522.84;;;17.46;88.69
60583;BME280;46415;47.536;19.066;2022-09-01T08:47:21;100522.22;;;17.68;88.08
60583;BME280;46415;47.536;19.066;2022-09-01T08:50:50;100528.81;;;17.86;90.04
60583;BME280;46415;47.536;19.066;2022-09-01T08:57:36;100521.97;;;17.83;87.67
60583;BME280;46415;47.536;19.066;2022-09-01T09:00:44;100523.62;;;17.97;86.37
60583;BME280;46415;47.536;19.066;2022-09-01T09:17:06;100524.72;;;18.29;86.88
60583;BME280;46415;47.536;19.066;2022-09-01T09:20:09;100522.84;;;18.31;91.93
60583;BME280;46415;47.536;19.066;2022-09-01T09:23:23;100519.59;;;18.52;88.01
60583;BME280;46415;47.536;19.066;2022-09-01T09:26:29;100521.34;;;18.64;80.78
60583;BME280;46415;47.536;19.066;2022-09-01T09:29:58;100517.34;;;18.93;80.79
60583;BME280;46415;47.536;19.066;2022-09-01T09:33:08;100504.69;;;19.32;85.16
60583;BME280;46415;47.536;19.066;2022-09-01T09:36:35;100497.19;;;19.49;79.72
60583;BME280;46415;47.536;19.066;2022-09-01T09:39:38;100510.34;;;19.61;80.25
60583;BME280;46415;47.536;19.066;2022-09-01T09:42:58;100504.00;;;19.63;79.90
60583;BME280;46415;47.536;19.066;2022-09-01T09:46:32;100505.06;;;19.61;82.27
60583;BME280;46415;47.536;19.066;2022-09-01T09:49:36;100495.38;;;19.61;81.30
60583;BME280;46415;47.536;19.066;2022-09-01T09:52:49;100498.16;;;19.60;76.32
60583;BME280;46415;47.536;19.066;2022-09-01T09:55:59;100488.34;;;19.50;74.01
60583;BME280;46415;47.536;19.066;2022-09-01T09:59:26;100487.28;;;19.53;74.05
60583;BME280;46415;47.536;19.066;2022-09-01T10:02:59;100483.19;;;19.60;71.79
60583;BME280;46415;47.536;19.066;2022-09-01T10:12:33;100484.16;;;19.48;72.81
60583;BME280;46415;47.536;19.066;2022-09-01T10:15:39;100484.00;;;19.27;72.47
60583;BME280;46415;47.536;19.066;2022-09-01T10:18:43;100487.59;;;19.26;71.37
60583;BME280;46415;47.536;19.066;2022-09-01T10:21:50;100484.13;;;19.26;71.62
60583;BME280;46415;47.536;19.066;2022-09-01T10:24:53;100482.09;;;19.29;70.25
60583;BME280;46415;47.536;19.066;2022-09-01T10:28:01;100480.53;;;19.38;70.27
60583;BME280;46415;47.536;19.066;2022-09-01T10:31:07;100479.09;;;19.45;69.51
60583;BME280;46415;47.536;19.066;2022-09-01T10:34:14;100472.66;;;19.71;69.27
60583;BME280;46415;47.536;19.066;2022-09-01T10:37:22;100469.78;;;20.06;65.12
60583;BME280;46415;47.536;19.066;2022-09-01T10:46:45;100463.31;;;20.84;60.78
60583;BME280;46415;47.536;19.066;2022-09-01T10:52:57;100463.94;;;21.17;57.50
60583;BME280;46415;47.536;19.066;2022-09-01T10:56:18;100463.00;;;21.28;55.54
60583;BME280;46415;47.536;19.066;2022-09-01T10:59:30;100460.72;;;21.54;53.51
60583;BME280;46415;47.536;19.066;2022-09-01T11:02:39;100467.66;;;21.45;52.13
60583;BME280;46415;47.536;19.066;2022-09-01T11:09:22;100461.94;;;21.40;51.06
60583;BME280;46415;47.536;19.066;2022-09-01T11:16:28;100455.75;;;21.70;50.97
60583;BME280;46415;47.536;19.066;2022-09-01T11:20:23;100461.56;;;22.04;52.58
60583;BME280;46415;47.536;19.066;2022-09-01T11:23:29;100450.72;;;22.26;49.54
60583;BME280;46415;47.536;19.066;2022-09-01T11:29:54;100444.28;;;22.29;47.74
60583;BME280;46415;47.536;19.066;2022-09-01T11:39:51;100445.53;;;22.63;46.92
60583;BME280;46415;47.536;19.066;2022-09-01T11:43:06;100456.34;;;22.89;46.52
60583;BME280;46415;47.536;19.066;2022-09-01T11:46:29;100441.09;;;23.10;45.07
60583;BME280;46415;47.536;19.066;2022-09-01T11:49:38;100434.44;;;23.34;41.74
60583;BME280;46415;47.536;19.066;2022-09-01T11:52:42;100433.84;;;23.40;41.61
60583;BME280;46415;47.536;19.066;2022-09-01T11:55:55;100428.59;;;23.57;40.52
60583;BME280;46415;47.536;19.066;2022-09-01T11:58:58;100425.00;;;23.76;41.14
60583;BME280;46415;47.536;19.066;2022-09-01T12:02:01;100430.81;;;23.62;41.04
60583;BME280;46415;47.536;19.066;2022-09-01T12:05:39;100427.53;;;23.50;41.11
60583;BME280;46415;47.536;19.066;2022-09-01T12:08:51;100422.34;;;23.76;40.44
60583;BME280;46415;47.536;19.066;2022-09-01T12:11:55;100421.44;;;23.85;41.10
60583;BME280;46415;47.536;19.066;2022-09-01T12:15:08;100424.09;;;24.21;41.39
60583;BME280;46415;47.536;19.066;2022-09-01T12:18:19;100420.00;;;24.09;40.11
60583;BME280;46415;47.536;19.066;2022-09-01T12:21:32;100414.81;;;23.72;39.34
60583;BME280;46415;47.536;19.066;2022-09-01T12:24:35;100416.22;;;23.76;41.18
60583;BME280;46415;47.536;19.066;2022-09-01T12:27:38;100411.16;;;23.82;39.84
60583;BME280;46415;47.536;19.066;2022-09-01T12:30:41;100410.22;;;23.74;38.98
60583;BME280;46415;47.536;19.066;2022-09-01T12:33:47;100412.81;;;23.83;40.20
60583;BME280;46415;47.536;19.066;2022-09-01T12:40:29;100412.41;;;24.14;39.71
60583;BME280;46415;47.536;19.066;2022-09-01T12:43:38;100412.66;;;24.20;38.76
60583;BME280;46415;47.536;19.066;2022-09-01T12:46:43;100407.44;;;24.28;38.83
60583;BME280;46415;47.536;19.066;2022-09-01T12:49:48;100402.94;;;24.47;37.76
60583;BME280;46415;47.536;19.066;2022-09-01T12:53:00;100408.06;;;24.74;37.20
60583;BME280;46415;47.536;19.066;2022-09-01T12:56:16;100401.94;;;24.73;38.09
60583;BME280;46415;47.536;19.066;2022-09-01T12:59:23;100404.91;;;24.70;37.29
60583;BME280;46415;47.536;19.066;2022-09-01T13:02:44;100409.22;;;24.71;37.74
60583;BME280;46415;47.536;19.066;2022-09-01T13:05:52;100401.94;;;24.73;36.10
60583;BME280;46415;47.536;19.066;2022-09-01T13:08:55;100407.72;;;24.69;36.06
60583;BME280;46415;47.536;19.066;2022-09-01T13:12:15;100405.31;;;24.58;35.54
60583;BME280;46415;47.536;19.066;2022-09-01T13:15:19;100400.75;;;24.42;36.38
60583;BME280;46415;47.536;19.066;2022-09-01T13:18:23;100404.72;;;24.20;37.01
60583;BME280;46415;47.536;19.066;2022-09-01T13:21:31;100398.25;;;24.05;36.07
60583;BME280;46415;47.536;19.066;2022-09-01T13:24:34;100406.22;;;23.87;36.11
60583;BME280;46415;47.536;19.066;2022-09-01T13:27:37;100406.00;;;23.81;35.84
60583;BME280;46415;47.536;19.066;2022-09-01T13:30:44;100398.94;;;23.89;36.75
60583;BME280;46415;47.536;19.066;2022-09-01T13:33:48;100402.75;;;23.87;36.64
60583;BME280;46415;47.536;19.066;2022-09-01T13:37:11;100401.28;;;23.75;35.10
60583;BME280;46415;47.536;19.066;2022-09-01T13:40:16;100404.41;;;23.88;35.13
60583;BME280;46415;47.536;19.066;2022-09-01T13:43:21;100400.53;;;24.00;35.23
60583;BME280;46415;47.536;19.066;2022-09-01T13:46:25;100410.47;;;23.98;35.52
60583;BME280;46415;47.536;19.066;2022-09-01T13:49:27;100404.41;;;24.06;36.72
60583;BME280;46415;47.536;19.066;2022-09-01T13:52:53;100405.75;;;24.27;36.23
60583;BME280;46415;47.536;19.066;2022-09-01T13:55:56;100404.25;;;24.43;36.38
60583;BME280;46415;47.536;19.066;2022-09-01T13:59:07;100401.06;;;24.65;35.88
60583;BME280;46415;47.536;19.066;2022-09-01T14:02:10;100400.22;;;24.64;35.20
60583;BME280;46415;47.536;19.066;2022-09-01T14:05:12;100402.72;;;24.40;34.14
60583;BME280;46415;47.536;19.066;2022-09-01T14:08:18;100400.06;;;24.40;33.54
60583;BME280;46415;47.536;19.066;2022-09-01T14:11:22;100407.41;;;24.46;36.18
60583;BME280;46415;47.536;19.066;2022-09-01T14:14:26;100405.84;;;24.35;34.91
60583;BME280;46415;47.536;19.066;2022-09-01T14:17:51;100409.87;;;24.22;35.44
60583;BME280;46415;47.536;19.066;2022-09-01T14:20:53;100411.00;;;24.19;36.56
60583;BME280;46415;47.536;19.066;2022-09-01T14:24:01;100399.91;;;24.42;35.41
60583;BME280;46415;47.536;19.066;2022-09-01T14:27:04;100407.13;;;24.57;35.67
60583;BME280;46415;47.536;19.066;2022-09-01T14:30:10;100407.50;;;24.62;34.67
60583;BME280;46415;47.536;19.066;2022-09-01T14:33:13;100408.31;;;24.37;34.77
60583;BME280;46415;47.536;19.066;2022-09-01T14:36:22;100408.41;;;24.27;34.49
60583;BME280;46415;47.536;19.066;2022-09-01T14:39:25;100400.13;;;24.48;34.29
60583;BME280;46415;47.536;19.066;2022-09-01T14:42:28;100411.06;;;24.71;35.44
60583;BME280;46415;47.536;19.066;2022-09-01T14:45:30;100407.78;;;24.85;34.94
60583;BME280;46415;47.536;19.066;2022-09-01T14:48:33;100404.28;;;25.02;33.55
60583;BME280;46415;47.536;19.066;2022-09-01T14:51:36;100414.44;;;25.15;34.47
60583;BME280;46415;47.536;19.066;2022-09-01T14:54:59;100413.81;;;25.21;33.82
60583;BME280;46415;47.536;19.066;2022-09-01T14:58:03;100413.09;;;25.53;34.21
60583;BME280;46415;47.536;19.066;2022-09-01T15:01:06;100415.59;;;25.54;32.70
60583;BME280;46415;47.536;19.066;2022-09-01T15:04:30;100411.56;;;26.49;31.70
60583;BME280;46415;47.536;19.066;2022-09-01T15:07:34;100422.50;;;27.34;30.58
60583;BME280;46415;47.536;19.066;2022-09-01T15:10:36;100418.94;;;27.80;28.48
60583;BME280;46415;47.536;19.066;2022-09-01T15:13:40;100411.88;;;27.87;28.58
60583;BME280;46415;47.536;19.066;2022-09-01T15:16:43;100417.56;;;27.84;29.11
60583;BME280;46415;47.536;19.066;2022-09-01T15:19:48;100410.88;;;28.34;27.92
60583;BME280;46415;47.536;19.066;2022-09-01T15:22:51;100413.31;;;28.58;27.23
60583;BME280;46415;47.536;19.066;2022-09-01T15:25:54;100404.53;;;29.02;25.48
60583;BME280;46415;47.536;19.066;2022-09-01T15:29:00;100417.38;;;28.69;26.48
60583;BME280;46415;47.536;19.066;2022-09-01T15:32:06;100407.81;;;28.37;25.90
60583;BME280;46415;47.536;19.066;2022-09-01T15:35:21;100408.78;;;29.83;25.15
60583;BME280;46415;47.536;19.066;2022-09-01T15:38:25;100418.31;;;31.72;22.66
60583;BME280;46415;47.536;19.066;2022-09-01T15:41:32;100406.19;;;32.62;20.63
60583;BME280;46415;47.536;19.066;2022-09-01T15:44:36;100408.34;;;33.17;20.28
60583;BME280;46415;47.536;19.066;2022-09-01T15:47:38;100406.69;;;33.99;19.68
60583;BME280;46415;47.536;19.066;2022-09-01T15:50:47;100399.16;;;34.32;18.68
60583;BME280;46415;47.536;19.066;2022-09-01T15:53:55;100407.56;;;35.40;18.20
60583;BME280;46415;47.536;19.066;2022-09-01T15:56:59;100413.22;;;35.39;17.55
60583;BME280;46415;47.536;19.066;2022-09-01T16:00:03;100407.25;;;33.32;19.22
60583;BME280;46415;47.536;19.066;2022-09-01T16:03:13;100406.97;;;30.54;21.73
60583;BME280;46415;47.536;19.066;2022-09-01T16:06:16;100404.66;;;28.19;24.65
60583;BME280;46415;47.536;19.066;2022-09-01T16:09:18;100406.91;;;26.43;26.46
60583;BME280;46415;47.536;19.066;2022-09-01T16:12:24;100410.94;;;25.48;28.30
60583;BME280;46415;47.536;19.066;2022-09-01T16:15:27;100416.66;;;24.68;30.72
60583;BME280;46415;47.536;19.066;2022-09-01T16:18:42;100410.31;;;24.35;30.01
60583;BME280;46415;47.536;19.066;2022-09-01T16:22:00;100416.00;;;24.05;31.12
60583;BME280;46415;47.536;19.066;2022-09-01T16:25:14;100409.50;;;23.54;34.32
60583;BME280;46415;47.536;19.066;2022-09-01T16:28:28;100407.59;;;23.19;35.11
60583;BME280;46415;47.536;19.066;2022-09-01T16:31:34;100411.06;;;22.92;34.83
60583;BME280;46415;47.536;19.066;2022-09-01T16:34:40;100413.59;;;22.84;35.18
60583;BME280;46415;47.536;19.066;2022-09-01T16:41:37;100403.84;;;22.65;36.09
60583;BME280;46415;47.536;19.066;2022-09-01T16:45:04;100407.13;;;22.40;40.30
60583;BME280;46415;47.536;19.066;2022-09-01T16:48:20;100406.87;;;22.14;40.27
60583;BME280;46415;47.536;19.066;2022-09-01T16:52:22;100420.34;;;22.11;37.10
60583;BME280;46415;47.536;19.066;2022-09-01T17:02:15;100420.56;;;21.70;37.89
60583;BME280;46415;47.536;19.066;2022-09-01T17:08:48;100425.44;;;21.55;40.75
60583;BME280;46415;47.536;19.066;2022-09-01T17:15:34;100422.75;;;21.45;39.82
60583;BME280;46415;47.536;19.066;2022-09-01T17:18:50;100433.97;;;21.28;41.33
60583;BME280;46415;47.536;19.066;2022-09-01T17:22:03;100430.75;;;21.15;44.84